createdAt,value
2023-04-18T00:00:00.102Z,84
2023-04-18T00:05:00.174Z,85
2023-04-18T00:10:00.163Z,85
2023-04-18T00:15:00.129Z,85
2023-04-18T00:20:00.104Z,85
2023-04-18T00:25:00.132Z,85
2023-04-18T00:30:00.161Z,85
2023-04-18T00:35:00.133Z,85
2023-04-18T00:40:00.160Z,85
2023-04-18T00:45:00.161Z,85
2023-04-18T00:50:00.145Z,85
2023-04-18T00:55:00.129Z,86
2023-04-18T01:00:00.165Z,86
2023-04-18T01:05:00.128Z,85
2023-04-18T01:10:00.124Z,85
2023-04-18T01:15:00.112Z,85
2023-04-18T01:20:00.179Z,84
2023-04-18T01:25:00.194Z,84
2023-04-18T01:30:00.172Z,84
2023-04-18T01:35:00.156Z,84
2023-04-18T01:40:00.166Z,85
2023-04-18T01:45:00.098Z,85
2023-04-18T01:50:00.131Z,86
2023-04-18T01:55:00.142Z,86
2023-04-18T02:00:00.143Z,86
2023-04-18T02:05:00.134Z,86
2023-04-18T02:10:00.172Z,86
2023-04-18T02:15:00.134Z,86
2023-04-18T02:20:00.168Z,86
2023-04-18T02:25:00.132Z,86
2023-04-18T02:30:00.160Z,86
2023-04-18T02:35:00.115Z,86
2023-04-18T02:40:00.161Z,86
2023-04-18T02:45:00.108Z,86
2023-04-18T02:50:00.194Z,86
2023-04-18T02:55:00.170Z,86
2023-04-18T03:00:00.153Z,86
2023-04-18T03:05:00.172Z,86
2023-04-18T03:10:00.119Z,86
2023-04-18T03:15:00.122Z,85
2023-04-18T03:20:00.127Z,84
2023-04-18T03:25:00.199Z,85
2023-04-18T03:30:00.116Z,84
2023-04-18T03:35:00.136Z,85
2023-04-18T03:40:00.167Z,85
2023-04-18T03:45:00.104Z,85
2023-04-18T03:50:00.148Z,85
2023-04-18T03:55:00.164Z,85
2023-04-18T04:00:00.103Z,86
2023-04-18T04:05:00.186Z,86
2023-04-18T04:10:00.126Z,86
2023-04-18T04:15:00.110Z,85
2023-04-18T04:20:00.172Z,85
2023-04-18T04:25:00.182Z,86
2023-04-18T04:30:00.282Z,85
2023-04-18T04:35:00.155Z,85
2023-04-18T04:40:00.121Z,85
2023-04-18T04:45:00.229Z,85
2023-04-18T04:50:00.130Z,85
2023-04-18T04:55:00.131Z,85
2023-04-18T05:00:00.118Z,86
2023-04-18T05:05:00.140Z,86
2023-04-18T05:10:00.108Z,86
2023-04-18T05:15:00.146Z,87
2023-04-18T05:20:00.135Z,86
2023-04-18T05:25:00.129Z,86
2023-04-18T05:30:00.180Z,86
2023-04-18T05:35:00.126Z,86
2023-04-18T05:40:01.148Z,86
2023-04-18T05:45:00.141Z,87
2023-04-18T05:50:00.141Z,86
2023-04-18T05:55:00.120Z,87
2023-04-18T06:00:00.145Z,86
2023-04-18T06:05:00.458Z,86
2023-04-18T06:10:00.171Z,86
2023-04-18T06:15:00.150Z,86
2023-04-18T06:20:00.156Z,86
2023-04-18T06:25:00.145Z,86
2023-04-18T06:30:00.180Z,86
2023-04-18T06:35:00.126Z,86
2023-04-18T06:40:00.152Z,85
2023-04-18T06:45:00.154Z,85
2023-04-18T06:50:00.180Z,85
2023-04-18T06:55:00.159Z,84
2023-04-18T07:00:00.133Z,85
2023-04-18T07:05:00.160Z,85
2023-04-18T07:10:00.132Z,84
2023-04-18T07:15:00.126Z,84
2023-04-18T07:20:00.143Z,84
2023-04-18T07:25:00.153Z,83
2023-04-18T07:30:00.114Z,83
2023-04-18T07:35:00.114Z,83
2023-04-18T07:40:00.133Z,83
2023-04-18T07:45:00.134Z,83
2023-04-18T07:50:00.180Z,83
2023-04-18T07:55:00.116Z,82
2023-04-18T08:00:00.183Z,82
2023-04-18T08:05:00.349Z,82
2023-04-18T08:10:00.158Z,82
2023-04-18T08:15:00.135Z,82
2023-04-18T08:20:00.145Z,81
2023-04-18T08:25:05.032Z,80
2023-04-18T08:30:00.186Z,81
2023-04-18T08:35:00.222Z,80
2023-04-18T08:40:00.154Z,80
2023-04-18T08:45:00.150Z,80
2023-04-18T08:50:00.180Z,80
2023-04-18T08:55:00.125Z,80
2023-04-18T09:00:00.150Z,79
2023-04-18T09:05:00.111Z,78
2023-04-18T09:10:00.176Z,77
2023-04-18T09:15:00.103Z,77
2023-04-18T09:20:00.129Z,76
2023-04-18T09:25:00.134Z,76
2023-04-18T09:30:00.158Z,76
2023-04-18T09:35:01.404Z,76
2023-04-18T09:40:00.133Z,76
2023-04-18T09:45:00.167Z,75
2023-04-18T09:50:00.136Z,75
2023-04-18T09:55:00.165Z,75
2023-04-18T10:00:00.168Z,75
2023-04-18T10:05:00.311Z,75
2023-04-18T10:10:00.154Z,73
2023-04-18T10:15:00.115Z,73
2023-04-18T10:20:00.149Z,73
2023-04-18T10:25:00.131Z,73
2023-04-18T10:30:00.168Z,73
2023-04-18T10:35:00.120Z,73
2023-04-18T10:40:00.212Z,72
2023-04-18T10:45:00.179Z,72
2023-04-18T10:50:00.120Z,72
2023-04-18T10:55:00.160Z,73
2023-04-18T11:00:00.187Z,71
2023-04-18T11:05:00.148Z,72
2023-04-18T11:10:00.187Z,71
2023-04-18T11:15:00.179Z,70
2023-04-18T11:20:00.186Z,70
2023-04-18T11:25:00.162Z,70
2023-04-18T11:30:00.174Z,69
2023-04-18T11:35:00.146Z,68
2023-04-18T11:40:00.146Z,67
2023-04-18T11:45:00.146Z,69
2023-04-18T11:50:00.122Z,69
2023-04-18T11:55:00.149Z,68
2023-04-18T12:00:00.161Z,68
2023-04-18T12:05:00.388Z,67
2023-04-18T12:10:00.118Z,67
2023-04-18T12:15:00.147Z,66
2023-04-18T12:20:00.166Z,67
2023-04-18T12:25:00.113Z,66
2023-04-18T12:30:00.149Z,66
2023-04-18T12:35:00.114Z,65
2023-04-18T12:40:00.204Z,66
2023-04-18T12:45:00.180Z,65
2023-04-18T12:50:00.155Z,65
2023-04-18T12:55:00.130Z,64
2023-04-18T13:00:00.151Z,64
2023-04-18T13:05:00.167Z,64
2023-04-18T13:10:00.133Z,65
2023-04-18T13:15:00.138Z,63
2023-04-18T13:20:05.105Z,64
2023-04-18T13:25:00.155Z,63
2023-04-18T13:30:00.201Z,63
2023-04-18T13:35:00.153Z,63
2023-04-18T13:40:00.130Z,63
2023-04-18T13:45:00.137Z,63
2023-04-18T13:50:00.164Z,64
2023-04-18T13:55:00.141Z,64
2023-04-18T14:00:00.159Z,64
2023-04-18T14:05:00.288Z,64
2023-04-18T14:10:00.117Z,64
2023-04-18T14:15:00.109Z,65
2023-04-18T14:20:00.148Z,65
2023-04-18T14:25:00.122Z,65
2023-04-18T14:30:00.149Z,65
2023-04-18T14:35:00.163Z,66
2023-04-18T14:40:00.140Z,66
2023-04-18T14:45:00.116Z,66
2023-04-18T14:50:00.138Z,67
2023-04-18T14:55:00.160Z,66
2023-04-18T15:00:00.161Z,67
2023-04-18T15:05:00.306Z,68
2023-04-18T15:10:00.116Z,68
2023-04-18T15:15:00.128Z,68
2023-04-18T15:20:00.166Z,68
2023-04-18T15:25:00.134Z,68
2023-04-18T15:30:00.165Z,68
2023-04-18T15:35:00.156Z,68
2023-04-18T15:40:00.161Z,68
2023-04-18T15:45:00.110Z,69
2023-04-18T15:50:00.116Z,69
2023-04-18T15:55:00.155Z,69
2023-04-18T16:00:00.148Z,69
2023-04-18T16:05:00.169Z,69
2023-04-18T16:10:00.144Z,70
2023-04-18T16:15:00.151Z,70
2023-04-18T16:20:00.166Z,70
2023-04-18T16:25:00.211Z,71
2023-04-18T16:30:00.250Z,71
2023-04-18T16:35:00.146Z,71
2023-04-18T16:40:00.167Z,71
2023-04-18T16:45:00.141Z,71
2023-04-18T16:50:00.289Z,72
2023-04-18T16:55:00.117Z,72
2023-04-18T17:00:00.159Z,72
2023-04-18T17:05:00.188Z,73
2023-04-18T17:10:00.127Z,73
2023-04-18T17:15:00.152Z,73
2023-04-18T17:20:00.110Z,73
2023-04-18T17:25:00.116Z,73
2023-04-18T17:30:00.179Z,74
2023-04-18T17:35:00.098Z,73
2023-04-18T17:40:00.162Z,74
2023-04-18T17:45:00.144Z,74
2023-04-18T17:50:00.117Z,74
2023-04-18T17:55:00.125Z,75
2023-04-18T18:00:00.122Z,75
2023-04-18T18:40:00.137Z,76
2023-04-18T18:45:00.142Z,77
2023-04-18T18:50:00.114Z,77
2023-04-18T18:55:00.136Z,77
2023-04-18T19:00:00.156Z,78
2023-04-18T19:05:00.315Z,78
2023-04-18T19:10:00.147Z,79
2023-04-18T19:15:00.157Z,78
2023-04-18T19:20:00.118Z,78
2023-04-18T19:25:00.111Z,79
2023-04-18T19:30:00.141Z,79
2023-04-18T19:35:00.268Z,79
2023-04-18T19:40:00.197Z,80
2023-04-18T19:45:00.159Z,80
2023-04-18T19:50:00.156Z,79
2023-04-18T19:55:00.140Z,79
2023-04-18T20:00:00.118Z,79
2023-04-18T20:05:00.361Z,80
2023-04-18T20:10:00.110Z,80
2023-04-18T20:15:00.148Z,80
2023-04-18T20:20:00.111Z,80
2023-04-18T20:25:00.101Z,80
2023-04-18T20:30:00.162Z,80
2023-04-18T20:35:00.132Z,79
2023-04-18T20:40:00.115Z,80
2023-04-18T20:45:00.130Z,80
2023-04-18T20:50:00.176Z,80
2023-04-18T20:55:00.104Z,80
2023-04-18T21:00:00.190Z,80
2023-04-18T21:05:00.112Z,80
2023-04-18T21:10:00.117Z,80
2023-04-18T21:15:00.164Z,80
2023-04-18T21:20:00.172Z,80
2023-04-18T21:25:00.150Z,81
2023-04-18T21:30:00.931Z,81
2023-04-18T21:35:00.137Z,81
2023-04-18T21:40:00.171Z,81
2023-04-18T21:45:00.131Z,81
2023-04-18T21:50:00.129Z,81
2023-04-18T21:55:00.133Z,81
2023-04-18T22:00:00.177Z,82
2023-04-18T22:05:00.149Z,82
2023-04-18T22:10:00.202Z,82
2023-04-18T22:15:00.154Z,82
2023-04-18T22:20:00.173Z,82
2023-04-18T22:25:00.129Z,83
2023-04-18T22:30:00.137Z,83
2023-04-18T22:35:00.165Z,83
2023-04-18T22:40:00.140Z,83
2023-04-18T22:45:00.148Z,83
2023-04-18T22:50:00.125Z,83
2023-04-18T22:55:00.131Z,83
2023-04-18T23:00:00.117Z,83
2023-04-18T23:05:00.140Z,84
2023-04-18T23:10:00.181Z,84
2023-04-18T23:15:00.101Z,84
2023-04-18T23:20:00.148Z,84
2023-04-18T23:25:00.127Z,84
2023-04-18T23:30:00.133Z,84
2023-04-18T23:35:00.120Z,84
2023-04-18T23:40:00.172Z,84
2023-04-18T23:45:00.104Z,85
2023-04-18T23:50:00.140Z,85
2023-04-18T23:55:00.156Z,86
